Time;durP1;ratioP1;P1;durP2;ratioP2;P2;SDS_P1;SDS_P2;PMS_P1;PMS_P2;Temp;Humidity;BMP_temperature;BMP_pressure;BME280_temperature;BME280_humidity;BME280_pressure;Samples;Min_cycle;Max_cycle;Signal;HPM_P1;HPM_P2
2023/03/15 00:00:44;;;;;;;;;;;;;;;;;;5114031;28;2072;-39
2023/03/15 00:03:13;;;;;;;;;;;;;;;;;;5114015;28;1421;-39
2023/03/15 00:05:41;;;;;;;;;;;;;;;;;;5113591;28;1915;-43
2023/03/15 00:08:08;;;;;;;;;;;;;;;;;;5113898;28;2081;-39
2023/03/15 00:10:38;;;;;;;;;;;;;;;;;;5112834;28;1674;-48
2023/03/15 00:13:05;;;;;;;;;;;;;;;;;;5113465;28;2031;-39
2023/03/15 00:15:32;;;;;;;;;;;;;;;;;;5113748;28;1822;-39
2023/03/15 00:18:02;;;;;;;;;;;;;;;;;;5113294;28;1845;-40
2023/03/15 00:20:29;;;;;;;;;;;;;;;;;;5116590;27;2125;-48
2023/03/15 00:22:56;;;;;;;;;;;;;;;;;;5133864;27;1941;-46
2023/03/15 00:25:23;;;;;;;;;;;;;;;;;;5134214;27;1887;-39
2023/03/15 00:27:51;;;;;;;;;;;;;;;;;;5133948;27;1985;-40
2023/03/15 00:30:18;;;;;;;;;;;;;;;;;;5115617;27;1598;-40
2023/03/15 00:32:45;;;;;;;;;;;;;;;;;;5133046;27;1893;-39
2023/03/15 00:35:17;;;;;;;;;;;;;;;;;;5133521;27;2288;-39
2023/03/15 00:37:44;;;;;;;;;;;;;;;;;;5115290;27;1683;-40
2023/03/15 00:40:12;;;;;;;;;;;;;;;;;;5133769;27;1953;-40
2023/03/15 00:42:39;;;;;;;;;;;;;;;;;;5133504;27;2021;-41
2023/03/15 00:45:07;;;;;;;;;;;;;;;;;;5114948;27;1946;-39
2023/03/15 00:47:34;;;;;;;;;;;;;;;;;;5133627;27;1753;-39
2023/03/15 00:50:01;;;;;;;;;;;;;;;;;;5132867;27;2172;-40
2023/03/15 00:52:34;;;;;;;;;;;;;;;;;;5133664;27;1720;-40
2023/03/15 00:55:02;;;;;;;;;;;;;;;;;;5133430;27;1793;-40
2023/03/15 00:57:31;;;;;;;;;;;;;;;;;;5133491;27;2024;-39
2023/03/15 00:59:58;;;;;;;;;;;;;;;;;;5133155;27;1451;-39
2023/03/15 01:02:26;;;;;;;;;;;;;;;;;;5114648;27;2307;-39
2023/03/15 01:04:53;;;;;;;;;;;;;;;;;;5114878;27;2005;-40
2023/03/15 01:07:20;;;;;;;;;;;;;;;;;;5114771;27;2040;-40
2023/03/15 01:09:50;;;;;;;;;;;;;;;;;;5117161;27;1875;-39
2023/03/15 01:12:17;;;;;;;;;;;;;;;;;;5094140;28;2200;-39
2023/03/15 01:14:45;;;;;;;;;;;;;;;;;;5112553;28;1865;-39
2023/03/15 01:17:12;;;;;;;;;;;;;;;;;;5112454;28;2153;-39
2023/03/15 01:19:39;;;;;;;;;;;;;;;;;;5093921;28;1872;-39
2023/03/15 01:22:06;;;;;;;;;;;;;;;;;;5112108;28;1911;-39
2023/03/15 01:24:34;;;;;;;;;;;;;;;;;;5112262;28;1838;-39
2023/03/15 01:27:01;;;;;;;;;;;;;;;;;;5111974;28;1823;-39
2023/03/15 01:29:28;;;;;;;;;;;;;;;;;;5093854;28;2248;-39
2023/03/15 01:31:58;;;;;;;;;;;;;;;;;;5093558;28;2067;-40
2023/03/15 01:34:26;;;;;;;;;;;;;;;;;;5111863;28;1755;-39
2023/03/15 01:36:55;;;;;;;;;;;;;;;;;;5077402;28;1626;-39
2023/03/15 01:39:30;;;;;;;;;;;;;;;;;;5111668;28;1994;-39
2023/03/15 01:41:58;;;;;;;;;;;;;;;;;;5093538;28;2222;-39
2023/03/15 01:44:45;;;;;;;;;;;;;;;;;;5093589;28;1941;-40
2023/03/15 01:47:12;;;;;;;;;;;;;;;;;;5112015;28;1702;-39
2023/03/15 01:49:39;;;;;;;;;;;;;;;;;;5093313;28;2190;-42
2023/03/15 01:52:12;;;;;;;;;;;;;;;;;;5111627;28;2024;-39
2023/03/15 01:55:01;;;;;;;;;;;;;;;;;;5093561;28;2220;-39
2023/03/15 01:57:50;;;;;;;;;;;;;;;;;;5093374;28;2219;-40
2023/03/15 02:00:19;;;;;;;;;;;;;;;;;;5093239;28;1714;-39
2023/03/15 02:02:55;;;;;;;;;;;;;;;;;;5111779;28;1967;-39
2023/03/15 02:05:31;;;;;;;;;;;;;;;;;;5093519;28;2257;-39
2023/03/15 02:08:01;;;;;;;;;;;;;;;;;;5093154;28;1973;-39
2023/03/15 02:10:41;;;;;;;;;;;;;;;;;;5102517;28;2061;-39
2023/03/15 02:13:12;;;;;;;;;;;;;;;;;;5113530;27;1886;-39
2023/03/15 02:15:45;;;;;;;;;;;;;;;;;;5113612;27;1300;-39
2023/03/15 02:18:20;;;;;;;;;;;;;;;;;;5113731;28;2152;-39
2023/03/15 02:21:07;;;;;;;;;;;;;;;;;;5131975;28;1844;-39
2023/03/15 02:23:34;;;;;;;;;;;;;;;;;;5131812;28;2169;-40
2023/03/15 02:26:20;;;;;;;;;;;;;;;;;;5113398;28;1987;-43
2023/03/15 02:28:48;;;;;;;;;;;;;;;;;;5131621;28;1868;-43
2023/03/15 02:31:17;;;;;;;;;;;;;;;;;;5113537;28;2211;-39
2023/03/15 02:33:46;;;;;;;;;;;;;;;;;;5113263;27;1995;-44
2023/03/15 02:36:21;;;;;;;;;;;;;;;;;;5135738;27;1586;-43
2023/03/15 02:38:49;;;;;;;;;;;;;;;;;;5135969;27;1388;-40
2023/03/15 02:41:19;;;;;;;;;;;;;;;;;;5135819;27;2039;-40
2023/03/15 02:43:47;;;;;;;;;;;;;;;;;;5135692;27;1920;-44
2023/03/15 02:46:15;;;;;;;;;;;;;;;;;;5135594;27;2111;-39
2023/03/15 02:48:44;;;;;;;;;;;;;;;;;;5135995;27;1957;-40
2023/03/15 02:51:22;;;;;;;;;;;;;;;;;;5135847;27;1902;-40
2023/03/15 02:53:50;;;;;;;;;;;;;;;;;;5117295;27;1948;-38
2023/03/15 02:56:18;;;;;;;;;;;;;;;;;;5117080;27;1932;-40
2023/03/15 02:58:45;;;;;;;;;;;;;;;;;;5135516;27;2220;-40
2023/03/15 03:01:14;;;;;;;;;;;;;;;;;;5117001;27;1998;-40
2023/03/15 03:03:42;;;;;;;;;;;;;;;;;;5135752;27;1655;-40
2023/03/15 03:06:10;;;;;;;;;;;;;;;;;;5116918;27;2403;-39
2023/03/15 03:08:38;;;;;;;;;;;;;;;;;;5111108;28;1973;-41
2023/03/15 03:11:07;;;;;;;;;;;;;;;;;;5096209;28;2164;-40
2023/03/15 03:13:36;;;;;;;;;;;;;;;;;;5096826;28;2147;-41
2023/03/15 03:16:04;;;;;;;;;;;;;;;;;;5096424;28;1722;-39
2023/03/15 03:18:34;;;;;;;;;;;;;;;;;;5096413;28;2062;-39
2023/03/15 03:21:04;;;;;;;;;;;;;;;;;;5096518;28;2066;-40
2023/03/15 03:23:32;;;;;;;;;;;;;;;;;;5095897;28;1967;-40
2023/03/15 03:26:00;;;;;;;;;;;;;;;;;;5096310;28;1774;-43
2023/03/15 03:28:29;;;;;;;;;;;;;;;;;;5096264;28;1822;-38
2023/03/15 03:30:58;;;;;;;;;;;;;;;;;;5096373;28;2023;-39
2023/03/15 03:33:26;;;;;;;;;;;;;;;;;;5096317;28;1688;-40
2023/03/15 03:35:59;;;;;;;;;;;;;;;;;;5114098;28;1776;-39
2023/03/15 03:38:27;;;;;;;;;;;;;;;;;;5096389;28;2012;-39
2023/03/15 03:40:57;;;;;;;;;;;;;;;;;;5095528;28;1670;-39
2023/03/15 03:43:27;;;;;;;;;;;;;;;;;;5096010;28;1934;-39
2023/03/15 03:45:54;;;;;;;;;;;;;;;;;;5095589;28;1989;-39
2023/03/15 03:48:21;;;;;;;;;;;;;;;;;;5114123;28;2042;-40
2023/03/15 03:50:48;;;;;;;;;;;;;;;;;;5114179;28;1652;-39
2023/03/15 03:53:16;;;;;;;;;;;;;;;;;;5114207;28;1704;-39
2023/03/15 03:55:43;;;;;;;;;;;;;;;;;;5113780;28;2027;-40
2023/03/15 03:58:15;;;;;;;;;;;;;;;;;;5095805;28;1609;-40
2023/03/15 04:00:48;;;;;;;;;;;;;;;;;;5095578;28;2245;-40
2023/03/15 04:03:15;;;;;;;;;;;;;;;;;;5095364;28;1980;-39
2023/03/15 04:05:46;;;;;;;;;;;;;;;;;;5114507;27;1995;-40
2023/03/15 04:08:18;;;;;;;;;;;;;;;;;;5112919;27;1997;-39
2023/03/15 04:10:48;;;;;;;;;;;;;;;;;;5095411;28;1674;-40
2023/03/15 04:13:16;;;;;;;;;;;;;;;;;;5113525;28;1685;-39
2023/03/15 04:15:44;;;;;;;;;;;;;;;;;;5113421;28;1490;-40
2023/03/15 04:18:11;;;;;;;;;;;;;;;;;;5095367;28;2218;-40
2023/03/15 04:20:47;;;;;;;;;;;;;;;;;;5113662;28;2198;-39
2023/03/15 04:23:18;;;;;;;;;;;;;;;;;;5113269;28;1988;-40
2023/03/15 04:26:17;;;;;;;;;;;;;;;;;;5078973;28;1981;-40
2023/03/15 04:29:08;;;;;;;;;;;;;;;;;;5104895;28;2348;-39
2023/03/15 04:32:00;;;;;;;;;;;;;;;;;;5112940;28;1602;-39
2023/03/15 04:34:50;;;;;;;;;;;;;;;;;;5083852;28;1976;-41
2023/03/15 04:37:47;;;;;;;;;;;;;;;;;;5100565;28;2043;-39
2023/03/15 04:40:35;;;;;;;;;;;;;;;;;;5113609;28;2159;-40
2023/03/15 04:43:23;;;;;;;;;;;;;;;;;;5112883;28;2021;-39
2023/03/15 04:46:03;;;;;;;;;;;;;;;;;;5094883;28;2086;-40
2023/03/15 04:48:43;;;;;;;;;;;;;;;;;;5094725;28;1833;-40
2023/03/15 04:51:36;;;;;;;;;;;;;;;;;;5083694;28;9526;-40
2023/03/15 04:54:26;;;;;;;;;;;;;;;;;;5089244;28;1786;-40
2023/03/15 04:57:16;;;;;;;;;;;;;;;;;;5073780;28;1744;-40
2023/03/15 05:00:07;;;;;;;;;;;;;;;;;;5084756;28;1792;-40
2023/03/15 05:02:34;;;;;;;;;;;;;;;;;;5092592;28;1985;-39
2023/03/15 05:05:13;;;;;;;;;;;;;;;;;;5073820;28;1808;-39
2023/03/15 05:07:52;;;;;;;;;;;;;;;;;;5073788;28;2040;-40
2023/03/15 05:10:32;;;;;;;;;;;;;;;;;;5054123;28;2265;-41
2023/03/15 05:13:23;;;;;;;;;;;;;;;;;;5071749;28;1654;-40
2023/03/15 05:16:14;;;;;;;;;;;;;;;;;;5071230;28;1973;-40
2023/03/15 05:19:02;;;;;;;;;;;;;;;;;;5071566;28;2214;-40
2023/03/15 05:21:57;;;;;;;;;;;;;;;;;;5052990;28;1963;-41
2023/03/15 05:24:54;;;;;;;;;;;;;;;;;;5087387;28;2167;-42
2023/03/15 05:27:45;;;;;;;;;;;;;;;;;;5071579;28;2082;-41
2023/03/15 05:30:32;;;;;;;;;;;;;;;;;;5070348;28;2484;-39
2023/03/15 05:33:03;;;;;;;;;;;;;;;;;;5071380;28;1771;-41
2023/03/15 05:35:46;;;;;;;;;;;;;;;;;;5071257;28;1284;-40
2023/03/15 05:38:33;;;;;;;;;;;;;;;;;;5071531;28;2216;-41
2023/03/15 05:41:23;;;;;;;;;;;;;;;;;;5070673;28;1469;-41
2023/03/15 05:44:25;;;;;;;;;;;;;;;;;;5071319;28;2058;-40
2023/03/15 05:47:13;;;;;;;;;;;;;;;;;;5070119;28;1921;-40
2023/03/15 05:50:09;;;;;;;;;;;;;;;;;;5066770;28;1732;-39
2023/03/15 05:52:52;;;;;;;;;;;;;;;;;;5071279;28;1989;-41
2023/03/15 05:55:32;;;;;;;;;;;;;;;;;;5069749;28;1686;-39
2023/03/15 05:58:14;;;;;;;;;;;;;;;;;;5071309;28;2001;-41
2023/03/15 06:01:00;;;;;;;;;;;;;;;;;;5071169;28;1681;-40
2023/03/15 06:03:48;;;;;;;;;;;;;;;;;;5069660;28;2085;-40
2023/03/15 06:06:19;;;;;;;;;;;;;;;;;;5069660;28;1989;-40
2023/03/15 06:08:47;;;;;;;;;;;;;;;;;;5055367;28;2313;-40
2023/03/15 06:11:14;;;;;;;;;;;;;;;;;;5071128;28;1789;-40
2023/03/15 06:13:42;;;;;;;;;;;;;;;;;;5052499;28;2230;-40
2023/03/15 06:16:17;;;;;;;;;;;;;;;;;;5053102;28;1937;-40
2023/03/15 06:18:47;;;;;;;;;;;;;;;;;;5052838;28;1952;-40
2023/03/15 06:21:14;;;;;;;;;;;;;;;;;;5052621;28;1823;-40
2023/03/15 06:23:41;;;;;;;;;;;;;;;;;;5052992;28;1990;-39
2023/03/15 06:26:09;;;;;;;;;;;;;;;;;;5071031;28;1672;-40
2023/03/15 06:28:36;;;;;;;;;;;;;;;;;;5070606;28;1968;-39
2023/03/15 06:31:13;;;;;;;;;;;;;;;;;;5052474;28;2000;-40
2023/03/15 06:33:50;;;;;;;;;;;;;;;;;;5053316;28;1864;-39
2023/03/15 06:36:18;;;;;;;;;;;;;;;;;;5072718;28;2281;-39
2023/03/15 06:38:48;;;;;;;;;;;;;;;;;;5090878;28;1728;-39
2023/03/15 06:41:15;;;;;;;;;;;;;;;;;;5090710;28;2222;-40
2023/03/15 06:43:43;;;;;;;;;;;;;;;;;;5090987;28;2022;-40
2023/03/15 06:46:11;;;;;;;;;;;;;;;;;;5070717;28;1669;-40
2023/03/15 06:48:39;;;;;;;;;;;;;;;;;;5089384;28;2168;-40
2023/03/15 06:51:09;;;;;;;;;;;;;;;;;;5072932;28;2035;-39
2023/03/15 06:53:36;;;;;;;;;;;;;;;;;;5072469;28;1784;-40
2023/03/15 18:47:55;;;;;;;;;;;;;;;;;;5802205;23;1903;-55
2023/03/15 18:53:23;;;;;;;;;;;;;;;;;;4835761;29;1412;-50
2023/03/15 18:55:52;;;;;;;;;;;;;;;;;;4838791;29;1369;-42
2023/03/15 18:58:20;;;;;;;;;;;;;;;;;;4836010;29;1032;-42
2023/03/15 19:00:48;;;;;;;;;;;;;;;;;;4833295;29;2565;-42
2023/03/15 19:03:16;;;;;;;;;;;;;;;;;;4837500;29;2640;-42
2023/03/15 19:05:43;;;;;;;;;;;;;;;;;;4840197;29;1913;-49
2023/03/15 19:08:11;;;;;;;;;;;;;;;;;;4827006;29;1323;-42
2023/03/15 19:10:38;;;;;;;;;;;;;;;;;;4821854;29;1256;-55
2023/03/15 19:13:05;;;;;;;;;;;;;;;;;;4821982;29;962;-48
2023/03/15 19:15:32;;;;;;;;;;;;;;;;;;4838997;29;1395;-43
2023/03/15 19:18:00;;;;;;;;;;;;;;;;;;4843755;29;1016;-41
2023/03/15 19:20:27;;;;;;;;;;;;;;;;;;4855143;29;1331;-41
2023/03/15 19:26:43;;;;;;;;;;;;;;;;;;4843596;29;1353;-42
2023/03/15 19:29:37;;;;;;;;;;;;;;;;;;4843305;29;1268;-41
2023/03/15 19:36:08;;;;;;;;;;;;;;;;;;4843267;29;1029;-40
2023/03/15 19:42:56;;;;;;;;;;;;;;;;;;4843351;29;1117;-41
2023/03/15 19:45:23;;;;;;;;;;;;;;;;;;4843150;29;1917;-42
2023/03/15 19:47:51;;;;;;;;;;;;;;;;;;4843228;29;1029;-40
2023/03/15 19:50:18;;;;;;;;;;;;;;;;;;4842965;29;1010;-41
2023/03/15 19:52:46;;;;;;;;;;;;;;;;;;4870673;29;1172;-41
2023/03/15 19:55:14;;;;;;;;;;;;;;;;;;4879962;29;1343;-42
2023/03/15 19:57:42;;;;;;;;;;;;;;;;;;4880065;29;1021;-41
2023/03/15 20:00:12;;;;;;;;;;;;;;;;;;4879922;29;942;-41
2023/03/15 20:02:42;;;;;;;;;;;;;;;;;;4879723;29;1028;-40
2023/03/15 20:05:10;;;;;;;;;;;;;;;;;;4879797;29;1998;-41
2023/03/15 20:07:38;;;;;;;;;;;;;;;;;;4879550;29;1185;-41
2023/03/15 20:10:07;;;;;;;;;;;;;;;;;;4880020;29;969;-43
2023/03/15 20:12:35;;;;;;;;;;;;;;;;;;4879905;29;1203;-40
2023/03/15 20:15:13;;;;;;;;;;;;;;;;;;4879539;29;1384;-40
2023/03/15 20:17:40;;;;;;;;;;;;;;;;;;4879575;29;1015;-40
2023/03/15 20:20:09;;;;;;;;;;;;;;;;;;4879783;29;1388;-41
2023/03/15 20:22:38;;;;;;;;;;;;;;;;;;4879721;29;942;-40
2023/03/15 20:25:08;;;;;;;;;;;;;;;;;;4879766;29;1912;-41
2023/03/15 20:27:36;;;;;;;;;;;;;;;;;;4878579;29;1178;-41
2023/03/15 20:30:04;;;;;;;;;;;;;;;;;;4879351;29;1310;-40
2023/03/15 20:32:31;;;;;;;;;;;;;;;;;;4879507;29;1287;-41
2023/03/15 20:35:00;;;;;;;;;;;;;;;;;;4879298;29;1056;-41
2023/03/15 20:37:28;;;;;;;;;;;;;;;;;;4879314;29;1306;-40
2023/03/15 20:39:55;;;;;;;;;;;;;;;;;;4878034;29;1203;-40
2023/03/15 20:42:23;;;;;;;;;;;;;;;;;;4879214;29;1034;-40
2023/03/15 20:44:51;;;;;;;;;;;;;;;;;;4879178;29;1980;-41
2023/03/15 20:47:18;;;;;;;;;;;;;;;;;;4879067;29;1280;-40
2023/03/15 20:49:45;;;;;;;;;;;;;;;;;;4879157;29;1174;-44
2023/03/15 20:52:13;;;;;;;;;;;;;;;;;;4878862;29;1217;-41
2023/03/15 20:54:41;;;;;;;;;;;;;;;;;;4879016;29;957;-41
2023/03/15 20:57:08;;;;;;;;;;;;;;;;;;4879067;29;1491;-39
2023/03/15 20:59:35;;;;;;;;;;;;;;;;;;4879284;29;1075;-39
2023/03/15 21:02:03;;;;;;;;;;;;;;;;;;4878972;29;1159;-40
2023/03/15 21:04:30;;;;;;;;;;;;;;;;;;4878453;29;1919;-46
2023/03/15 21:07:15;;;;;;;;;;;;;;;;;;4878365;29;1900;-40
2023/03/15 21:10:05;;;;;;;;;;;;;;;;;;4878682;29;1195;-40
2023/03/15 21:12:32;;;;;;;;;;;;;;;;;;4878652;29;1230;-42
2023/03/15 21:15:00;;;;;;;;;;;;;;;;;;4878544;29;1409;-46
2023/03/15 21:17:27;;;;;;;;;;;;;;;;;;4878511;29;907;-41
2023/03/15 21:19:55;;;;;;;;;;;;;;;;;;4878351;29;913;-40
2023/03/15 21:22:23;;;;;;;;;;;;;;;;;;4878567;29;979;-41
2023/03/15 21:24:51;;;;;;;;;;;;;;;;;;4878341;29;1908;-41
2023/03/15 21:27:24;;;;;;;;;;;;;;;;;;4878408;29;1083;-47
2023/03/15 21:33:23;;;;;;;;;;;;;;;;;;4861512;29;2184;-58
2023/03/15 21:36:37;;;;;;;;;;;;;;;;;;4878418;29;1356;-40
2023/03/15 21:39:40;;;;;;;;;;;;;;;;;;4878078;29;907;-41
2023/03/15 21:46:12;;;;;;;;;;;;;;;;;;5170762;27;1644;-41
2023/03/15 21:49:03;;;;;;;;;;;;;;;;;;5170944;27;1356;-41
2023/03/15 21:51:32;;;;;;;;;;;;;;;;;;5171214;27;1103;-40
2023/03/15 21:54:00;;;;;;;;;;;;;;;;;;5170984;27;1036;-41
2023/03/15 21:56:26;;;;;;;;;;;;;;;;;;5170875;27;1254;-40
2023/03/15 21:58:53;;;;;;;;;;;;;;;;;;5170861;27;1058;-40
2023/03/15 22:01:23;;;;;;;;;;;;;;;;;;5170579;27;1018;-41
2023/03/15 22:03:52;;;;;;;;;;;;;;;;;;5135035;27;1911;-41
2023/03/15 22:06:19;;;;;;;;;;;;;;;;;;5170777;27;1051;-40
2023/03/15 22:08:46;;;;;;;;;;;;;;;;;;5170803;27;993;-41
2023/03/15 22:11:13;;;;;;;;;;;;;;;;;;5171035;27;962;-40
2023/03/15 22:13:40;;;;;;;;;;;;;;;;;;5170796;27;1046;-41
2023/03/15 22:16:07;;;;;;;;;;;;;;;;;;5170502;27;1086;-40
2023/03/15 22:18:34;;;;;;;;;;;;;;;;;;5170554;27;1009;-40
2023/03/15 22:21:01;;;;;;;;;;;;;;;;;;5170576;27;1355;-40
2023/03/15 22:23:28;;;;;;;;;;;;;;;;;;5170388;27;1133;-40
2023/03/15 22:25:56;;;;;;;;;;;;;;;;;;5151893;27;1976;-41
2023/03/15 22:28:25;;;;;;;;;;;;;;;;;;5151748;27;1119;-41
2023/03/15 22:30:53;;;;;;;;;;;;;;;;;;5170276;27;1154;-41
2023/03/15 22:33:23;;;;;;;;;;;;;;;;;;5170403;27;950;-41
2023/03/15 22:35:50;;;;;;;;;;;;;;;;;;5170269;27;1261;-40
2023/03/15 22:38:17;;;;;;;;;;;;;;;;;;5170235;27;959;-40
2023/03/15 22:40:44;;;;;;;;;;;;;;;;;;5170512;27;1215;-40
2023/03/15 22:43:10;;;;;;;;;;;;;;;;;;5151255;27;1039;-41
2023/03/15 22:45:37;;;;;;;;;;;;;;;;;;5169936;27;1972;-39
2023/03/15 22:48:04;;;;;;;;;;;;;;;;;;5170018;27;1070;-40
2023/03/15 22:50:31;;;;;;;;;;;;;;;;;;5167474;27;1607;-39
2023/03/15 22:52:59;;;;;;;;;;;;;;;;;;5149160;27;977;-40
2023/03/15 22:55:25;;;;;;;;;;;;;;;;;;5148822;27;1334;-40
2023/03/15 22:57:52;;;;;;;;;;;;;;;;;;5155879;27;1377;-40
2023/03/15 23:00:20;;;;;;;;;;;;;;;;;;5155803;27;1105;-40
2023/03/15 23:02:47;;;;;;;;;;;;;;;;;;5156016;27;1090;-40
2023/03/15 23:05:14;;;;;;;;;;;;;;;;;;5155907;27;1965;-40
2023/03/15 23:07:41;;;;;;;;;;;;;;;;;;5155753;27;1357;-40
2023/03/15 23:10:08;;;;;;;;;;;;;;;;;;5147318;27;1129;-40
2023/03/15 23:12:36;;;;;;;;;;;;;;;;;;5135008;27;904;-41
2023/03/15 23:15:04;;;;;;;;;;;;;;;;;;5134902;27;1344;-40
2023/03/15 23:17:30;;;;;;;;;;;;;;;;;;5116809;27;1202;-41
2023/03/15 23:19:57;;;;;;;;;;;;;;;;;;5134783;27;908;-40
2023/03/15 23:22:24;;;;;;;;;;;;;;;;;;5116088;27;1249;-40
2023/03/15 23:24:51;;;;;;;;;;;;;;;;;;5134379;27;1908;-41
2023/03/15 23:27:24;;;;;;;;;;;;;;;;;;5134579;27;1158;-40
2023/03/15 23:29:52;;;;;;;;;;;;;;;;;;5134786;27;1049;-41
2023/03/15 23:32:20;;;;;;;;;;;;;;;;;;5134538;27;1079;-40
2023/03/15 23:34:47;;;;;;;;;;;;;;;;;;5134728;27;1049;-40
2023/03/15 23:37:14;;;;;;;;;;;;;;;;;;5134230;27;923;-39
2023/03/15 23:39:41;;;;;;;;;;;;;;;;;;5116053;27;1208;-40
2023/03/15 23:42:08;;;;;;;;;;;;;;;;;;5134170;27;1202;-41
2023/03/15 23:44:35;;;;;;;;;;;;;;;;;;5112321;28;1923;-40
2023/03/15 23:47:04;;;;;;;;;;;;;;;;;;5113676;28;1201;-41
2023/03/15 23:49:31;;;;;;;;;;;;;;;;;;5113683;28;1407;-40
2023/03/15 23:51:58;;;;;;;;;;;;;;;;;;5113442;28;907;-40
2023/03/15 23:54:25;;;;;;;;;;;;;;;;;;5113418;28;1222;-40
2023/03/15 23:56:52;;;;;;;;;;;;;;;;;;5113647;28;1321;-40
2023/03/15 23:59:20;;;;;;;;;;;;;;;;;;5113367;28;1420;-41
